地図

経路データ

SID SEASON NUMBER BASIN SUBBASIN NAME ISO_TIME NATURE LAT LON WMO_WIND WMO_PRES WMO_AGENCY TRACK_TYPE DIST2LAND LANDFALL IFLAG USA_AGENCY USA_ATCF_ID USA_LAT USA_LON USA_RECORD USA_STATUS USA_WIND USA_PRES USA_SSHS USA_R34_NE USA_R34_SE USA_R34_SW USA_R34_NW USA_R50_NE USA_R50_SE USA_R50_SW USA_R50_NW USA_R64_NE USA_R64_SE USA_R64_SW USA_R64_NW USA_POCI USA_ROCI USA_RMW USA_EYE TOKYO_LAT TOKYO_LON TOKYO_GRADE TOKYO_WIND TOKYO_PRES TOKYO_R50_DIR TOKYO_R50_LONG TOKYO_R50_SHORT TOKYO_R30_DIR TOKYO_R30_LONG TOKYO_R30_SHORT TOKYO_LAND CMA_LAT CMA_LON CMA_CAT CMA_WIND CMA_PRES HKO_LAT HKO_LON HKO_CAT HKO_WIND HKO_PRES NEWDELHI_LAT NEWDELHI_LON NEWDELHI_GRADE NEWDELHI_WIND NEWDELHI_PRES NEWDELHI_CI NEWDELHI_DP NEWDELHI_POCI REUNION_LAT REUNION_LON REUNION_TYPE REUNION_WIND REUNION_PRES REUNION_TNUM REUNION_CI REUNION_RMW REUNION_R34_NE REUNION_R34_SE REUNION_R34_SW REUNION_R34_NW REUNION_R50_NE REUNION_R50_SE REUNION_R50_SW REUNION_R50_NW REUNION_R64_NE REUNION_R64_SE REUNION_R64_SW REUNION_R64_NW BOM_LAT BOM_LON BOM_TYPE BOM_WIND BOM_PRES BOM_TNUM BOM_CI BOM_RMW BOM_R34_NE BOM_R34_SE BOM_R34_SW BOM_R34_NW BOM_R50_NE BOM_R50_SE BOM_R50_SW BOM_R50_NW BOM_R64_NE BOM_R64_SE BOM_R64_SW BOM_R64_NW BOM_ROCI BOM_POCI BOM_EYE BOM_POS_METHOD BOM_PRES_METHOD NADI_LAT NADI_LON NADI_CAT NADI_WIND NADI_PRES WELLINGTON_LAT WELLINGTON_LON WELLINGTON_WIND WELLINGTON_PRES DS824_LAT DS824_LON DS824_STAGE DS824_WIND DS824_PRES TD9636_LAT TD9636_LON TD9636_STAGE TD9636_WIND TD9636_PRES TD9635_LAT TD9635_LON TD9635_WIND TD9635_PRES TD9635_ROCI NEUMANN_LAT NEUMANN_LON NEUMANN_CLASS NEUMANN_WIND NEUMANN_PRES MLC_LAT MLC_LON MLC_CLASS MLC_WIND MLC_PRES USA_GUST BOM_GUST BOM_GUST_PER REUNION_GUST REUNION_GUST_PER USA_SEAHGT USA_SEARAD_NE USA_SEARAD_SE USA_SEARAD_SW USA_SEARAD_NW STORM_SPEED STORM_DIR
1961004S19146 1961 4 SP EA NOT_NAMED 1961-01-03 23:00:00 NR -18.6000 146.400 main 10 10 __________O___ -1 -18.6000 146.400 1 13 106
1961004S19146 1961 4 SP EA NOT_NAMED 1961-01-04 00:00:00 NR -18.6602 146.621 main 31 31 __________P___ -1 -18.6602 146.621 1 13 106
1961004S19146 1961 4 SP EA NOT_NAMED 1961-01-04 03:00:00 NR -18.8355 147.285 main 64 55 __________P___ -1 -18.8355 147.285 1 13 105
1961004S19146 1961 4 SP EA NOT_NAMED 1961-01-04 06:00:00 NR -18.9952 147.940 main 68 68 __________P___ -1 -18.9952 147.940 1 13 103
1961004S19146 1961 4 SP EA NOT_NAMED 1961-01-04 09:00:00 NR -19.1294 148.583 main 105 98 __________P___ -1 -19.1294 148.583 1 12 102
1961004S19146 1961 4 SP EA NOT_NAMED 1961-01-04 11:00:00 NR -19.2000 149.000 main 115 115 __________O___ -1 -19.2000 149.000 1 12 100
1961004S19146 1961 4 SP EA NOT_NAMED 1961-01-04 12:00:00 NR -19.2289 149.205 main 128 128 __________P___ -1 -19.2289 149.205 1 11 98
1961004S19146 1961 4 SP EA NOT_NAMED 1961-01-04 15:00:00 NR -19.3074 149.795 main 153 153 __________P___ -1 -19.3074 149.795 1 11 100
1961004S19146 1961 4 SP EA NOT_NAMED 1961-01-04 18:00:00 NR -19.4144 150.339 main 186 186 __________P___ -1 -19.4144 150.339 1 10 107
1961004S19146 1961 4 SP EA NOT_NAMED 1961-01-04 21:00:00 NR -19.6029 150.821 main 222 222 __________P___ -1 -19.6029 150.821 1 10 118
1961004S19146 1961 4 SP EA NOT_NAMED 1961-01-04 23:00:00 NR -19.8000 151.100 main 242 239 __________O___ -1 -19.8000 151.100 1 11 134
1961004S19146 1961 4 SP EA NOT_NAMED 1961-01-05 00:00:00 NR -19.9724 151.223 main 241 217 __________P___ -1 -19.9724 151.223 1 14 153
1961004S19146 1961 4 SP EA NOT_NAMED 1961-01-05 03:00:00 NR -20.5996 151.538 main 217 175 __________P___ -1 -20.5996 151.538 1 14 158
1961004S19146 1961 4 SP EA NOT_NAMED 1961-01-05 06:00:00 NR -21.2751 151.798 main 167 144 __________P___ -1 -21.2751 151.798 1 13 160
1961004S19146 1961 4 SP EA NOT_NAMED 1961-01-05 09:00:00 NR -21.8486 152.036 main 146 140 __________P___ -1 -21.8486 152.036 1 11 156
1961004S19146 1961 4 SP EA NOT_NAMED 1961-01-05 11:00:00 NR -22.1000 152.200 main 150 150 __________O___ -1 -22.1000 152.200 2 8 138
1961004S19146 1961 4 SP EA NOT_NAMED 1961-01-05 12:00:00 NR -22.1361 152.316 main 160 160 __________P___ -1 -22.1361 152.316 2 7 87
1961004S19146 1961 4 SP EA NOT_NAMED 1961-01-05 15:00:00 NR -22.0733 152.677 main 200 200 __________P___ -1 -22.0733 152.677 2 7 65
1961004S19146 1961 4 SP EA NOT_NAMED 1961-01-05 18:00:00 NR -21.8309 153.016 main 239 239 __________P___ -1 -21.8309 153.016 2 8 45
1961004S19146 1961 4 SP EA NOT_NAMED 1961-01-05 21:00:00 NR -21.5092 153.285 main 280 280 __________P___ -1 -21.5092 153.285 2 8 34
1961004S19146 1961 4 SP EA NOT_NAMED 1961-01-05 23:00:00 NR -21.3000 153.400 main 299 299 __________O___ -1 -21.3000 153.400 1 6 25
1961004S19146 1961 4 SP EA NOT_NAMED 1961-01-06 00:00:00 NR -21.2369 153.426 main 305 305 __________P___ -1 -21.2369 153.426 1 4 2
1961004S19146 1961 4 SP EA NOT_NAMED 1961-01-06 03:00:00 NR -21.0530 153.423 main 310 310 __________P___ -1 -21.0530 153.423 1 4 346
1961004S19146 1961 4 SP EA NOT_NAMED 1961-01-06 06:00:00 NR -20.8769 153.331 main 314 312 __________P___ -1 -20.8769 153.331 1 4 328
1961004S19146 1961 4 SP EA NOT_NAMED 1961-01-06 09:00:00 NR -20.7083 153.195 main 319 311 __________P___ -1 -20.7083 153.195 1 4 322
1961004S19146 1961 4 SP EA NOT_NAMED 1961-01-06 11:00:00 NR -20.6000 153.100 main 318 318 __________O___ -1 -20.6000 153.100 1 4 325
1961004S19146 1961 4 SP EA NOT_NAMED 1961-01-06 12:00:00 NR -20.5466 153.079 main 326 318 __________P___ -1 -20.5466 153.079 1 3 338
1961004S19146 1961 4 SP EA NOT_NAMED 1961-01-06 15:00:00 NR -20.3919 153.013 main 326 326 __________P___ -1 -20.3919 153.013 1 3 335
1961004S19146 1961 4 SP EA NOT_NAMED 1961-01-06 18:00:00 NR -20.2431 152.929 main 335 335 __________P___ -1 -20.2431 152.929 1 4 327
1961004S19146 1961 4 SP EA NOT_NAMED 1961-01-06 21:00:00 NR -20.0972 152.809 main 336 336 __________P___ -1 -20.0972 152.809 1 4 318
1961004S19146 1961 4 SP EA NOT_NAMED 1961-01-06 23:00:00 NR -20.0000 152.700 main 339 332 __________O___ -1 -20.0000 152.700 2 4 310
1961004S19146 1961 4 SP EA NOT_NAMED 1961-01-07 00:00:00 NR -19.9550 152.629 main 332 330 __________P___ -1 -19.9550 152.629 2 5 300
1961004S19146 1961 4 SP EA NOT_NAMED 1961-01-07 03:00:00 NR -19.8220 152.378 main 340 329 __________P___ -1 -19.8220 152.378 2 6 298
1961004S19146 1961 4 SP EA NOT_NAMED 1961-01-07 06:00:00 NR -19.6822 152.089 main 335 318 __________P___ -1 -19.6822 152.089 2 6 298
1961004S19146 1961 4 SP EA NOT_NAMED 1961-01-07 09:00:00 NR -19.5230 151.790 main 322 307 __________P___ -1 -19.5230 151.790 2 6 301
1961004S19146 1961 4 SP EA NOT_NAMED 1961-01-07 11:00:00 NR -19.4000 151.600 main 307 298 __________O___ -1 -19.4000 151.600 2 7 306
1961004S19146 1961 4 SP EA NOT_NAMED 1961-01-07 12:00:00 NR -19.3322 151.510 main 303 289 __________P___ -1 -19.3322 151.510 2 7 313
1961004S19146 1961 4 SP EA NOT_NAMED 1961-01-07 15:00:00 NR -19.1061 151.263 main 294 281 __________P___ -1 -19.1061 151.263 2 7 317
1961004S19146 1961 4 SP EA NOT_NAMED 1961-01-07 18:00:00 NR -18.8533 151.040 main 278 278 __________P___ -1 -18.8533 151.040 2 7 322
1961004S19146 1961 4 SP EA NOT_NAMED 1961-01-07 21:00:00 NR -18.5840 150.833 main 283 283 __________P___ -1 -18.5840 150.833 2 7 325
1961004S19146 1961 4 SP EA NOT_NAMED 1961-01-07 23:00:00 NR -18.4000 150.700 main 291 __________O___ -1 -18.4000 150.700 1 7 325

デジタル台風データ・検索

IBTrACS Databaseについて

本データベースは、米国NOAAが公開する1842年以降の世界の熱帯低気圧のベストトラックデータアーカイブInternational Best Track Archive for Climate Stewardship (IBTrACS)を、ウェブで閲覧しやすい形式に変換したものです。

最終更新日:2021-10-21